This is the latest recevied weather packets stored in our database for station/object VE3VGJ. If no packets are shown the sender has not sent any weather packets the latest 10 day(s).
| Time | Temp. | Humidity | Pressure | Rain* | Wind** | Luminosity | Snow |
|---|---|---|---|---|---|---|---|
| 1778269434 | 10° C | 47% | 1010.2 hPa | 0 mm | - | 277 W/m² | - |
| 1778269131 | 10.56° C | 46% | 1010.5 hPa | 0 mm | - | 283 W/m² | - |
| 1778268828 | 11.11° C | 44% | 1010.6 hPa | 0 mm | - | 320 W/m² | - |
| 1778268524 | 11.67° C | 43% | 1010.4 hPa | 0 mm | - | 396 W/m² | - |
| 1778268221 | 11.67° C | 42% | 1010.7 hPa | 0 mm | - | 565 W/m² | - |
| 1778267918 | 11.11° C | 46% | 1010.6 hPa | 0 mm | - | 973 W/m² | - |
| 1778267616 | 11.11° C | 45% | 1010.8 hPa | 0 mm | - | 982 W/m² | - |
| 1778267312 | 11.67° C | 43% | 1010.7 hPa | 0 mm | - | 569 W/m² | - |
| 1778267009 | 11.11° C | 43% | 1010.7 hPa | 0 mm | - | 905 W/m² | - |
| 1778266705 | 11.11° C | 45% | 1010.8 hPa | 0 mm | - | 952 W/m² | - |
| 1778266403 | 11.67° C | 42% | 1011 hPa | 0 mm | - | 650 W/m² | - |
| 1778266100 | 11.67° C | 43% | 1010.9 hPa | 0 mm | - | 993 W/m² | - |
| 1778265797 | 11.67° C | 42% | 1010.9 hPa | 0 mm | - | 994 W/m² | - |
| 1778265494 | 11.11° C | 41% | 1011 hPa | 0 mm | - | 867 W/m² | - |
| 1778265191 | 11.67° C | 44% | 1011.1 hPa | 0 mm | - | 965 W/m² | - |
| 1778264886 | 11.67° C | 46% | 1010.9 hPa | 0 mm | - | 1006 W/m² | - |
| 1778264583 | 12.22° C | 44% | 1011 hPa | 0 mm | - | 1095 W/m² | - |
| 1778264279 | 11.11° C | 46% | 1011.1 hPa | 0 mm | - | 765 W/m² | - |
| 1778263976 | 11.11° C | 46% | 1010.9 hPa | 0 mm | - | 1029 W/m² | - |
| 1778263673 | 10° C | 48% | 1011.1 hPa | 0 mm | - | 438 W/m² | - |
| 1778263370 | 10.56° C | 46% | 1011.1 hPa | 0 mm | - | 403 W/m² | - |
| 1778263066 | 10.56° C | 47% | 1011 hPa | 0 mm | - | 439 W/m² | - |
| 1778262763 | 10.56° C | 50% | 1011.1 hPa | 0 mm | - | 1054 W/m² | - |
| 1778262461 | 10° C | 51% | 1011.1 hPa | 0 mm | - | 898 W/m² | - |
| 1778262158 | 10° C | 55% | 1011.5 hPa | 0 mm | - | 924 W/m² | - |
* Rain latest hour (hover to see other rain measurements)
** Current wind speed in m/s (hover to see current wind gust speed)